CheckWX is a tool to help pilots better visualize weather data.  It is not intended as a substitute for an official pre-flight weather briefing.

04:43:47 UTC

WMKI TAF
Sultan Azlan Shah Airport
Ipoh, Malaysia
TAF WMKI 222300Z 2300/2400 04005KT 9999 FEW020 BECMG 2304/2306 33010KT TEMPO 2310/2314 5000 TSRA FEW017CB BECMG 2315/2317 02004KT FEW030

Mar-23@
00:00 UTC

Mar-23 @ 00:00 UTC

Mar-23@
04:00 UTC

Mar-23 @ 04:00 UTC

TAF WMKI 222300Z 2300/2400 04005KT 9999 FEW020

Expired

Wind
  • 040° at 5 KTS
Cloud Levels
  • Few at 2,000' AGL

Mar-23@
04:00 UTC

Mar-23 @ 04:00 UTC

Mar-23@
15:00 UTC

Mar-23 @ 15:00 UTC

BECMG 2304/2306 33010KT

Becoming

Becoming Conditions expected by Sat, Mar 23, 2019 @ 06:00 UTC

Wind
  • 330° at 10 KTS
Cloud Levels
  • Few at 2,000' AGL

Mar-23@
10:00 UTC

Mar-23 @ 10:00 UTC

Mar-23@
14:00 UTC

Mar-23 @ 14:00 UTC

TEMPO 2310/2314 5000 TSRA FEW017CB

Temporary

Temporary Changes expected for less than half the time period

Conditions
Thunderstorm, Rain
Cloud Levels
  • Few at 1,700' AGL

Mar-23@
15:00 UTC

Mar-23 @ 15:00 UTC

Mar-24@
00:00 UTC

Mar-24 @ 00:00 UTC

BECMG 2315/2317 02004KT FEW030

Becoming

Becoming Conditions expected by Sat, Mar 23, 2019 @ 17:00 UTC

Wind
  • 020° at 4 KTS
Cloud Levels
  • Few at 3,000' AGL